Time;durP1;ratioP1;P1;durP2;ratioP2;P2;SDS_P1;SDS_P2;PMS_P1;PMS_P2;Temp;Humidity;BMP_temperature;BMP_pressure;BME280_temperature;BME280_humidity;BME280_pressure;Samples;Min_cycle;Max_cycle;Signal;HPM_P1;HPM_P2
2023/01/07 00:01:15;;;;;;;39.50;27.73;;;10.30;99.90;;;;;;4933739;28;20442;-78
2023/01/07 00:03:41;;;;;;;34.30;27.17;;;9.60;99.90;;;;;;4936016;28;20425;-78
2023/01/07 00:06:13;;;;;;;41.72;29.40;;;9.80;99.90;;;;;;4935116;28;20437;-83
2023/01/07 00:08:41;;;;;;;36.63;26.85;;;9.50;99.90;;;;;;4934166;28;20581;-81
2023/01/07 00:11:09;;;;;;;37.97;26.83;;;9.70;99.90;;;;;;4936711;28;20528;-75
2023/01/07 00:13:35;;;;;;;35.05;26.98;;;9.70;99.90;;;;;;4936127;28;21031;-81
2023/01/07 00:16:06;;;;;;;37.28;27.23;;;9.70;99.90;;;;;;4934900;28;20896;-79
2023/01/07 00:18:32;;;;;;;38.88;27.58;;;10.10;99.90;;;;;;4933413;28;20973;-80
2023/01/07 00:21:00;;;;;;;36.33;26.40;;;10.10;99.90;;;;;;4934780;28;20445;-76
2023/01/07 00:23:27;;;;;;;34.70;26.07;;;10.00;99.90;;;;;;4933862;28;20494;-79
2023/01/07 00:26:03;;;;;;;34.97;25.67;;;9.70;99.90;;;;;;4927699;28;20433;-78
2023/01/07 00:28:29;;;;;;;34.58;24.90;;;9.80;99.90;;;;;;4931930;28;21300;-80
2023/01/07 00:31:02;;;;;;;32.38;24.23;;;10.20;99.90;;;;;;4930572;28;20447;-77
2023/01/07 00:33:28;;;;;;;29.65;22.55;;;9.80;99.90;;;;;;4936129;28;20441;-80
2023/01/07 00:36:04;;;;;;;28.33;22.20;;;9.90;99.90;;;;;;4933775;28;20839;-74
2023/01/07 00:38:30;;;;;;;31.47;22.83;;;10.40;99.90;;;;;;4934812;28;20452;-80
2023/01/07 00:40:56;;;;;;;29.73;22.53;;;10.10;99.90;;;;;;4949401;28;20468;-79
2023/01/07 00:43:22;;;;;;;34.10;23.20;;;9.90;99.90;;;;;;4934681;29;20441;-76
2023/01/07 00:45:47;;;;;;;31.07;22.73;;;9.70;99.90;;;;;;4929645;29;20862;-81
2023/01/07 00:48:13;;;;;;;36.97;24.83;;;9.90;99.90;;;;;;4930421;28;20456;-79
2023/01/07 00:50:39;;;;;;;31.83;23.40;;;10.20;99.90;;;;;;4933364;28;20426;-81
2023/01/07 00:53:05;;;;;;;33.60;23.17;;;10.30;99.90;;;;;;4930177;28;20505;-79
2023/01/07 00:55:31;;;;;;;27.73;22.23;;;10.50;99.90;;;;;;4933047;28;20439;-80
2023/01/07 00:57:57;;;;;;;27.60;21.23;;;10.00;99.90;;;;;;4937153;28;20495;-78
2023/01/07 01:00:24;;;;;;;28.42;20.90;;;9.90;99.90;;;;;;4938824;28;20441;-81
2023/01/07 01:02:51;;;;;;;31.10;22.07;;;10.70;99.90;;;;;;4937615;28;20501;-82
2023/01/07 01:05:17;;;;;;;28.17;21.58;;;9.80;99.90;;;;;;4934885;28;20530;-78
2023/01/07 01:07:43;;;;;;;27.95;20.88;;;10.30;99.90;;;;;;4933117;28;20445;-80
2023/01/07 01:10:12;;;;;;;26.25;20.55;;;10.30;99.90;;;;;;4934464;28;20470;-80
2023/01/07 01:12:39;;;;;;;26.10;20.23;;;10.30;99.90;;;;;;4935233;28;20564;-78
2023/01/07 01:15:09;;;;;;;25.08;19.95;;;10.40;99.90;;;;;;4933744;28;20434;-81
2023/01/07 01:17:34;;;;;;;23.55;19.38;;;10.60;99.90;;;;;;4932650;28;20441;-81
2023/01/07 01:20:01;;;;;;;26.00;20.17;;;10.70;99.90;;;;;;4935379;29;20429;-79
2023/01/07 01:22:26;;;;;;;23.08;19.60;;;10.40;99.90;;;;;;4935581;28;20442;-77
2023/01/07 01:24:52;;;;;;;21.58;18.98;;;10.10;99.90;;;;;;4935301;28;20934;-77
2023/01/07 01:27:19;;;;;;;21.08;18.67;;;10.70;99.90;;;;;;4934681;28;20445;-80
2023/01/07 01:29:44;;;;;;;20.60;18.40;;;10.70;99.90;;;;;;4936175;28;20510;-81
2023/01/07 01:32:10;;;;;;;21.43;19.23;;;10.40;99.90;;;;;;4938366;28;20449;-83
2023/01/07 01:34:36;;;;;;;21.03;18.73;;;10.10;99.90;;;;;;4936492;29;20779;-82
2023/01/07 01:37:01;;;;;;;22.67;20.10;;;10.30;99.90;;;;;;4937398;28;20465;-76
2023/01/07 01:39:27;;;;;;;22.63;20.37;;;10.00;99.90;;;;;;4935497;28;20450;-81
2023/01/07 01:41:53;;;;;;;21.73;19.60;;;10.30;99.90;;;;;;4937691;28;20603;-80
2023/01/07 01:44:49;;;;;;;22.35;19.95;;;10.90;99.90;;;;;;4936992;28;20438;-84
2023/01/07 01:47:19;;;;;;;21.98;19.58;;;10.00;99.90;;;;;;4933513;28;20434;-81
2023/01/07 01:49:52;;;;;;;21.70;19.48;;;10.60;99.90;;;;;;4937202;28;21173;-81
2023/01/07 01:52:23;;;;;;;21.65;19.50;;;10.80;99.90;;;;;;4933652;28;20492;-81
2023/01/07 01:54:54;;;;;;;21.42;19.15;;;10.10;99.90;;;;;;4937146;28;20957;-76
2023/01/07 01:57:21;;;;;;;22.50;20.40;;;10.10;99.90;;;;;;4935601;28;20434;-82
2023/01/07 01:59:50;;;;;;;23.02;20.70;;;10.90;99.90;;;;;;4933658;28;20939;-81
2023/01/07 02:02:21;;;;;;;20.77;18.77;;;11.10;99.90;;;;;;4934352;28;20443;-81
2023/01/07 02:04:48;;;;;;;23.23;20.97;;;10.10;99.90;;;;;;4937531;28;20430;-80
2023/01/07 02:07:17;;;;;;;20.15;18.25;;;10.10;99.90;;;;;;4936078;28;21001;-81
2023/01/07 02:09:43;;;;;;;20.33;18.23;;;11.20;99.90;;;;;;4937353;28;20418;-80
2023/01/07 02:12:12;;;;;;;20.13;18.23;;;10.70;99.90;;;;;;4932923;28;20501;-82
2023/01/07 02:14:56;;;;;;;19.95;18.02;;;10.70;99.90;;;;;;4934975;28;20442;-79
2023/01/07 02:18:00;;;;;;;19.83;17.92;;;10.90;99.90;;;;;;4926679;28;20901;-78
2023/01/07 02:21:02;;;;;;;19.92;17.90;;;10.80;99.90;;;;;;4931500;28;20469;-77
2023/01/07 02:24:01;;;;;;;21.25;19.25;;;10.60;99.90;;;;;;4938627;28;20437;-80
2023/01/07 02:26:39;;;;;;;20.13;18.25;;;10.40;99.90;;;;;;4920389;28;20509;-76
2023/01/07 02:29:53;;;;;;;19.13;17.42;;;10.20;99.90;;;;;;4936768;29;20453;-81
2023/01/07 02:32:41;;;;;;;18.93;17.20;;;10.20;99.90;;;;;;4936885;28;20489;-80
2023/01/07 02:35:25;;;;;;;18.27;16.55;;;10.20;99.90;;;;;;4935039;28;20443;-76
2023/01/07 02:38:11;;;;;;;17.70;16.10;;;10.50;99.90;;;;;;4934767;28;20495;-79
2023/01/07 02:40:57;;;;;;;18.58;16.70;;;10.50;99.90;;;;;;4937626;28;20445;-76
2023/01/07 02:43:51;;;;;;;18.48;16.88;;;10.40;99.90;;;;;;4938222;28;20437;-81
2023/01/07 02:46:51;;;;;;;17.50;15.90;;;10.40;99.90;;;;;;4937927;28;20445;-77
2023/01/07 02:49:17;;;;;;;17.92;16.42;;;10.90;99.90;;;;;;4917548;29;20441;-79
2023/01/07 02:51:44;;;;;;;17.40;15.95;;;10.30;99.90;;;;;;4935392;28;20450;-79
2023/01/07 02:54:30;;;;;;;17.77;16.15;;;10.80;99.90;;;;;;4936919;29;20525;-81
2023/01/07 02:57:14;;;;;;;18.95;17.25;;;10.50;99.90;;;;;;4937535;28;20485;-82
2023/01/07 03:00:08;;;;;;;19.33;17.60;;;11.10;99.90;;;;;;4932493;28;20443;-82
2023/01/07 03:03:11;;;;;;;20.58;18.55;;;10.70;99.90;;;;;;4933102;28;20445;-82
2023/01/07 03:05:40;;;;;;;20.88;18.95;;;10.80;99.90;;;;;;4933868;28;20500;-81
2023/01/07 03:08:24;;;;;;;21.03;19.03;;;10.80;99.90;;;;;;4935220;29;20865;-83
2023/01/07 03:11:10;;;;;;;21.63;19.50;;;10.90;99.90;;;;;;4932351;29;20434;-82
2023/01/07 03:13:52;;;;;;;21.45;19.50;;;10.90;99.90;;;;;;4939991;29;20565;-76
2023/01/07 03:16:33;;;;;;;20.50;18.65;;;10.40;99.90;;;;;;4939917;28;20752;-77
2023/01/07 03:19:34;;;;;;;20.10;18.30;;;10.80;99.90;;;;;;4936257;28;20436;-74
2023/01/07 03:22:03;;;;;;;21.63;19.70;;;10.90;99.90;;;;;;4937287;29;20441;-76
2023/01/07 03:24:31;;;;;;;20.48;18.77;;;10.30;99.90;;;;;;4939593;29;20509;-83
2023/01/07 03:26:59;;;;;;;20.92;18.92;;;10.30;99.90;;;;;;4936899;28;20476;-78
2023/01/07 03:29:25;;;;;;;21.45;19.40;;;10.90;99.90;;;;;;4936331;28;20442;-79
2023/01/07 03:32:03;;;;;;;21.13;19.13;;;10.50;99.90;;;;;;4935788;28;20445;-76
2023/01/07 03:34:31;;;;;;;21.20;19.40;;;10.30;99.90;;;;;;4936358;29;20438;-86
2023/01/07 03:37:01;;;;;;;21.42;19.42;;;10.80;99.90;;;;;;4935273;28;20446;-81
2023/01/07 03:39:30;;;;;;;21.70;19.63;;;10.30;99.90;;;;;;4933344;28;20521;-81
2023/01/07 03:44:40;;;;;;;19.70;18.00;;;10.50;99.90;;;;;;4938092;28;20944;-84
2023/01/07 03:47:07;;;;;;;21.43;19.27;;;10.60;99.90;;;;;;4938339;28;20465;-78
2023/01/07 03:49:35;;;;;;;19.80;17.83;;;10.60;99.90;;;;;;4937288;28;20436;-84
2023/01/07 03:52:01;;;;;;;19.20;17.40;;;10.70;99.90;;;;;;4943589;29;20618;-78
2023/01/07 03:54:27;;;;;;;18.63;16.65;;;10.80;99.90;;;;;;4946229;28;20856;-81
2023/01/07 03:56:52;;;;;;;19.67;17.83;;;10.30;99.90;;;;;;4940105;28;20429;-79
2023/01/07 03:59:18;;;;;;;18.43;16.63;;;10.70;99.90;;;;;;4931490;29;20445;-84
2023/01/07 04:01:44;;;;;;;18.70;16.90;;;10.70;99.90;;;;;;4935886;29;20441;-85
2023/01/07 04:04:09;;;;;;;18.37;16.57;;;10.70;99.90;;;;;;4934731;28;20437;-83
2023/01/07 04:06:35;;;;;;;18.40;16.63;;;10.40;99.90;;;;;;4936198;28;20441;-85
2023/01/07 04:09:01;;;;;;;17.20;15.65;;;10.60;99.90;;;;;;4932973;29;21229;-84
2023/01/07 04:11:26;;;;;;;18.27;16.50;;;10.50;99.90;;;;;;4932387;28;20492;-78
2023/01/07 04:13:52;;;;;;;18.77;16.90;;;10.30;99.90;;;;;;4939586;29;20441;-78
2023/01/07 04:16:18;;;;;;;17.87;16.07;;;10.50;99.90;;;;;;4935318;29;20441;-80
2023/01/07 04:18:43;;;;;;;18.40;16.70;;;10.60;99.90;;;;;;4935853;28;21023;-82
2023/01/07 04:21:09;;;;;;;19.30;17.30;;;10.30;99.90;;;;;;4935151;29;20554;-84
2023/01/07 04:23:34;;;;;;;19.13;17.05;;;10.60;99.90;;;;;;4937893;29;20513;-83
2023/01/07 04:26:00;;;;;;;19.52;17.73;;;10.30;99.90;;;;;;4935418;28;20461;-81
2023/01/07 04:28:26;;;;;;;19.10;16.85;;;10.50;99.90;;;;;;4936543;28;21035;-85
2023/01/07 04:30:51;;;;;;;18.33;16.40;;;10.70;99.90;;;;;;4936628;28;20464;-83
2023/01/07 04:33:17;;;;;;;18.47;16.67;;;10.50;99.90;;;;;;4935390;29;20454;-78
2023/01/07 04:35:45;;;;;;;18.67;16.87;;;10.60;99.90;;;;;;4934645;28;22260;-81
2023/01/07 04:38:11;;;;;;;19.58;17.10;;;10.30;99.90;;;;;;4933963;28;20449;-77
2023/01/07 04:40:37;;;;;;;18.75;16.80;;;10.30;99.90;;;;;;4935243;28;20442;-77
2023/01/07 04:43:03;;;;;;;17.77;15.95;;;10.20;99.90;;;;;;4935170;28;20443;-84
2023/01/07 04:45:29;;;;;;;18.77;16.60;;;10.20;99.90;;;;;;4934867;28;20437;-82
2023/01/07 04:47:55;;;;;;;17.88;15.98;;;10.40;99.90;;;;;;4938420;28;20429;-78
2023/01/07 04:50:21;;;;;;;17.97;16.10;;;10.50;99.90;;;;;;4931137;29;20446;-83
2023/01/07 04:52:47;;;;;;;18.55;16.58;;;10.10;99.90;;;;;;4935612;28;20421;-82
2023/01/07 04:55:13;;;;;;;17.85;16.10;;;10.20;99.90;;;;;;4936833;29;20441;-83
2023/01/07 04:57:38;;;;;;;18.10;16.30;;;10.20;99.90;;;;;;4920574;29;20941;-84
2023/01/07 05:00:05;;;;;;;19.95;17.00;;;10.40;99.90;;;;;;4937407;28;20521;-85
2023/01/07 05:02:31;;;;;;;20.30;17.17;;;10.20;99.90;;;;;;4939463;28;20535;-82
2023/01/07 05:04:56;;;;;;;18.77;16.77;;;10.30;99.90;;;;;;4938931;28;20418;-78
2023/01/07 05:07:22;;;;;;;17.90;16.03;;;10.40;99.90;;;;;;4925308;29;20439;-82
2023/01/07 05:09:47;;;;;;;17.50;15.70;;;10.30;99.90;;;;;;4932256;29;20440;-81
2023/01/07 05:12:15;;;;;;;17.83;16.08;;;10.30;99.90;;;;;;4922384;29;20540;-82
2023/01/07 05:14:41;;;;;;;17.30;15.33;;;10.50;99.90;;;;;;4938054;29;20946;-83
2023/01/07 05:17:06;;;;;;;17.07;15.37;;;10.20;99.90;;;;;;4937393;28;20463;-76
2023/01/07 05:19:32;;;;;;;17.60;15.83;;;10.20;99.90;;;;;;4935202;28;20438;-83
2023/01/07 05:21:57;;;;;;;16.83;15.03;;;10.40;99.90;;;;;;4941767;29;20452;-76
2023/01/07 05:24:23;;;;;;;15.70;14.20;;;10.30;99.90;;;;;;4938914;29;20437;-83
2023/01/07 05:26:49;;;;;;;15.80;14.15;;;10.30;99.90;;;;;;4931265;29;20457;-79
2023/01/07 05:29:14;;;;;;;18.20;16.38;;;10.30;99.90;;;;;;4928939;28;20912;-79
2023/01/07 05:31:40;;;;;;;16.00;14.30;;;10.30;99.90;;;;;;4939112;28;20442;-84
2023/01/07 05:34:06;;;;;;;15.65;14.02;;;10.40;99.90;;;;;;4936314;28;20448;-77
2023/01/07 05:36:32;;;;;;;17.25;14.55;;;10.40;99.90;;;;;;4936637;29;20451;-84
2023/01/07 05:38:57;;;;;;;14.90;13.20;;;10.30;99.90;;;;;;4937911;28;20433;-77
2023/01/07 05:41:23;;;;;;;16.53;14.13;;;10.40;99.90;;;;;;4939422;29;20453;-83
2023/01/07 05:43:49;;;;;;;14.47;12.83;;;10.20;99.90;;;;;;4935419;28;20994;-82
2023/01/07 05:46:14;;;;;;;16.13;13.40;;;10.30;99.90;;;;;;4932671;29;20494;-83
2023/01/07 05:48:40;;;;;;;14.55;13.18;;;10.20;99.90;;;;;;4947156;28;20639;-82
2023/01/07 05:51:06;;;;;;;15.40;12.73;;;10.40;99.90;;;;;;4936763;28;20930;-82
2023/01/07 05:53:32;;;;;;;14.98;13.02;;;10.30;99.90;;;;;;4939830;29;20434;-83
2023/01/07 05:55:59;;;;;;;13.10;11.80;;;10.00;99.90;;;;;;4943279;28;20963;-76
2023/01/07 05:58:26;;;;;;;15.90;12.00;;;10.30;99.90;;;;;;4937969;28;20963;-77
2023/01/07 06:00:51;;;;;;;13.20;11.90;;;10.20;99.90;;;;;;4932463;28;20539;-80
2023/01/07 06:03:17;;;;;;;12.87;11.47;;;10.10;99.90;;;;;;4938011;29;20860;-77
2023/01/07 06:05:43;;;;;;;12.63;11.37;;;10.20;99.90;;;;;;4939231;28;20634;-83
2023/01/07 06:08:08;;;;;;;14.10;11.97;;;10.00;99.90;;;;;;4933419;28;20441;-83
2023/01/07 06:10:35;;;;;;;12.33;10.93;;;10.00;99.90;;;;;;4933952;28;20434;-82
2023/01/07 06:13:03;;;;;;;13.60;10.98;;;10.10;99.90;;;;;;4939992;28;20438;-81
2023/01/07 06:15:30;;;;;;;12.45;11.13;;;10.00;99.90;;;;;;4938505;28;21011;-80
2023/01/07 06:17:55;;;;;;;12.82;10.80;;;9.90;99.90;;;;;;4938936;29;20553;-81
2023/01/07 06:20:21;;;;;;;15.55;11.82;;;9.90;99.90;;;;;;4937648;28;20532;-80
2023/01/07 06:22:47;;;;;;;13.30;11.90;;;9.90;99.90;;;;;;4939505;28;20442;-79
2023/01/07 06:25:12;;;;;;;14.52;11.77;;;9.90;99.90;;;;;;4939284;28;21016;-75
2023/01/07 06:27:41;;;;;;;13.43;10.82;;;9.80;99.90;;;;;;4939753;29;20537;-81
2023/01/07 06:30:09;;;;;;;13.63;10.55;;;9.90;99.90;;;;;;4937724;28;20434;-77
2023/01/07 06:32:40;;;;;;;14.80;11.07;;;9.90;99.90;;;;;;4930116;28;20450;-83
2023/01/07 06:35:07;;;;;;;13.50;10.80;;;10.00;99.90;;;;;;4934302;28;20422;-81
2023/01/07 06:37:33;;;;;;;11.50;10.05;;;10.10;99.90;;;;;;4935136;29;20503;-80
2023/01/07 06:39:59;;;;;;;13.70;9.65;;;10.00;99.90;;;;;;4937294;28;20442;-80
2023/01/07 06:42:24;;;;;;;12.67;9.93;;;10.00;99.90;;;;;;4939877;28;20453;-79
2023/01/07 06:44:50;;;;;;;10.37;9.33;;;10.00;99.90;;;;;;4937232;29;20425;-78
2023/01/07 06:47:16;;;;;;;12.73;9.57;;;10.00;99.90;;;;;;4940162;28;21069;-82
2023/01/07 06:49:41;;;;;;;11.57;8.80;;;10.00;99.90;;;;;;4937677;28;21058;-77
2023/01/07 06:52:07;;;;;;;11.40;9.43;;;10.10;99.90;;;;;;4527236;23;20475;-71
2023/01/07 06:54:33;;;;;;;11.52;8.75;;;10.10;99.90;;;;;;4932569;28;20426;-71
2023/01/07 06:56:58;;;;;;;12.10;9.23;;;10.00;99.90;;;;;;4938679;28;20939;-70
2023/01/07 06:59:24;;;;;;;11.50;9.32;;;10.10;99.90;;;;;;4938886;28;20465;-71
2023/01/07 07:01:50;;;;;;;14.13;9.73;;;10.10;99.90;;;;;;4929157;28;20612;-71
2023/01/07 07:04:16;;;;;;;11.43;9.43;;;10.00;99.90;;;;;;4934458;28;21043;-71
2023/01/07 07:06:41;;;;;;;9.77;8.87;;;10.00;99.90;;;;;;4931005;28;20462;-72
2023/01/07 07:09:07;;;;;;;12.87;9.17;;;9.80;99.90;;;;;;4928426;28;20426;-72
2023/01/07 07:11:33;;;;;;;12.77;10.18;;;10.10;99.90;;;;;;4936700;29;20795;-71
2023/01/07 07:13:58;;;;;;;9.65;8.35;;;9.90;99.90;;;;;;4948486;28;20786;-71
2023/01/07 07:16:24;;;;;;;12.80;9.07;;;10.10;99.90;;;;;;4933000;28;20452;-72
2023/01/07 07:18:51;;;;;;;10.03;8.00;;;10.10;99.90;;;;;;4935523;28;20516;-71
2023/01/07 07:21:17;;;;;;;9.88;8.18;;;10.00;99.90;;;;;;4947757;28;20894;-72
2023/01/07 07:23:43;;;;;;;10.73;8.73;;;9.90;99.90;;;;;;4929820;28;20958;-72
2023/01/07 07:26:09;;;;;;;12.07;8.50;;;10.00;99.90;;;;;;4921116;28;20509;-71
2023/01/07 07:28:35;;;;;;;9.87;8.00;;;10.00;99.90;;;;;;4936557;28;20876;-72
2023/01/07 07:31:00;;;;;;;9.60;7.68;;;10.00;99.90;;;;;;4936957;28;20538;-73
2023/01/07 07:33:26;;;;;;;10.15;7.82;;;10.10;99.90;;;;;;4924093;28;20767;-73
2023/01/07 07:35:53;;;;;;;10.88;8.25;;;10.00;99.90;;;;;;4924765;28;21020;-72
2023/01/07 07:38:19;;;;;;;14.57;8.35;;;9.80;99.90;;;;;;4922140;28;20459;-72
2023/01/07 07:40:46;;;;;;;10.00;7.90;;;10.00;99.90;;;;;;4924818;28;20977;-71
2023/01/07 07:43:12;;;;;;;9.50;7.50;;;10.00;99.90;;;;;;4928534;28;20455;-71
2023/01/07 07:45:39;;;;;;;8.70;6.63;;;10.20;99.90;;;;;;4927355;28;20447;-72
2023/01/07 07:48:06;;;;;;;9.15;7.63;;;9.90;99.90;;;;;;4942046;28;20950;-72
2023/01/07 07:50:32;;;;;;;7.80;6.97;;;9.90;99.90;;;;;;4930061;28;20432;-71
2023/01/07 07:52:58;;;;;;;10.30;6.93;;;9.90;99.90;;;;;;4928328;28;20509;-72
2023/01/07 07:55:23;;;;;;;7.97;6.78;;;9.80;99.90;;;;;;4924645;29;20456;-72
2023/01/07 07:57:55;;;;;;;10.05;7.15;;;9.80;99.90;;;;;;4916754;29;20866;-71
2023/01/07 08:00:21;;;;;;;6.63;5.60;;;9.80;99.90;;;;;;4924924;28;20437;-72
2023/01/07 08:02:47;;;;;;;10.05;7.07;;;9.80;99.90;;;;;;4933211;28;20522;-71
2023/01/07 08:05:12;;;;;;;6.87;5.80;;;9.90;99.90;;;;;;4918815;29;20524;-71
2023/01/07 08:07:38;;;;;;;9.03;6.50;;;9.80;99.90;;;;;;4925611;28;20855;-72
2023/01/07 08:10:05;;;;;;;8.93;5.82;;;9.80;99.90;;;;;;4916408;29;20426;-70
2023/01/07 08:12:31;;;;;;;9.57;5.68;;;9.80;99.90;;;;;;4928690;28;20471;-72
2023/01/07 08:14:57;;;;;;;7.93;5.63;;;9.70;99.90;;;;;;4920326;29;20798;-73
2023/01/07 08:17:22;;;;;;;6.40;5.40;;;9.70;99.90;;;;;;4934226;28;20442;-72
2023/01/07 08:19:48;;;;;;;8.13;5.60;;;9.60;99.90;;;;;;4919758;28;20854;-72
2023/01/07 08:22:14;;;;;;;6.57;5.47;;;9.60;99.90;;;;;;4934863;28;20449;-72
2023/01/07 08:24:39;;;;;;;9.85;5.60;;;9.60;99.90;;;;;;4937749;28;20447;-71
2023/01/07 08:27:05;;;;;;;8.77;5.72;;;9.60;99.90;;;;;;4929888;28;20435;-73
2023/01/07 08:29:31;;;;;;;8.45;6.07;;;9.60;99.90;;;;;;4925225;28;21118;-72
2023/01/07 08:31:57;;;;;;;7.15;4.95;;;9.70;99.90;;;;;;4916212;29;20940;-71
2023/01/07 08:34:22;;;;;;;7.32;5.20;;;9.80;99.90;;;;;;4935021;28;20525;-73
2023/01/07 08:36:48;;;;;;;7.20;4.90;;;9.90;99.90;;;;;;4928745;28;20840;-72
2023/01/07 08:39:14;;;;;;;6.97;4.75;;;9.90;99.90;;;;;;4932686;28;20909;-72
2023/01/07 08:41:39;;;;;;;5.65;4.45;;;9.90;99.90;;;;;;4929824;28;20790;-72
2023/01/07 08:44:05;;;;;;;6.85;4.88;;;9.90;99.90;;;;;;4932168;28;20429;-74
2023/01/07 08:46:31;;;;;;;4.70;3.63;;;9.90;99.90;;;;;;4934340;28;20441;-71
2023/01/07 08:48:57;;;;;;;5.00;3.55;;;9.90;99.90;;;;;;4936768;28;20431;-71
2023/01/07 08:51:22;;;;;;;7.63;4.53;;;9.90;99.90;;;;;;4940746;28;20449;-74
2023/01/07 08:53:48;;;;;;;5.73;4.20;;;9.80;99.90;;;;;;4932557;28;20872;-72
2023/01/07 08:56:14;;;;;;;6.30;3.90;;;10.00;99.90;;;;;;4926691;29;20441;-72
2023/01/07 08:58:39;;;;;;;5.40;3.50;;;9.90;99.90;;;;;;4931049;28;20434;-71
2023/01/07 09:01:06;;;;;;;5.73;3.40;;;9.90;99.90;;;;;;4934859;28;20454;-69
2023/01/07 09:03:32;;;;;;;6.50;3.53;;;9.90;99.90;;;;;;4948418;28;20441;-73
2023/01/07 09:05:58;;;;;;;7.00;3.90;;;9.90;99.90;;;;;;4922678;28;21021;-71
2023/01/07 09:08:24;;;;;;;4.88;3.33;;;10.00;99.90;;;;;;4941670;28;20536;-73
2023/01/07 09:10:49;;;;;;;6.80;3.57;;;9.90;99.90;;;;;;4935703;28;20736;-70
2023/01/07 09:13:15;;;;;;;5.13;3.63;;;10.00;99.90;;;;;;4937387;28;20437;-70
2023/01/07 09:15:41;;;;;;;4.67;3.27;;;9.90;99.90;;;;;;4941087;28;20457;-73
2023/01/07 09:18:06;;;;;;;5.40;3.43;;;10.00;99.90;;;;;;4934714;28;20858;-72
2023/01/07 09:20:32;;;;;;;4.87;3.27;;;9.90;99.90;;;;;;4940064;28;22840;-71
2023/01/07 09:22:58;;;;;;;6.85;3.60;;;10.00;99.90;;;;;;4925980;28;20514;-71
2023/01/07 09:25:24;;;;;;;5.45;3.60;;;9.80;99.90;;;;;;4938035;28;20526;-70
2023/01/07 09:27:49;;;;;;;6.20;3.20;;;10.00;99.90;;;;;;4941013;28;20438;-71
2023/01/07 09:30:15;;;;;;;4.53;3.20;;;10.00;99.90;;;;;;4950843;28;20416;-72
2023/01/07 09:32:42;;;;;;;3.58;3.17;;;9.90;99.90;;;;;;4952456;28;20447;-70
2023/01/07 09:35:08;;;;;;;7.57;3.50;;;9.90;99.90;;;;;;4953697;28;20420;-70
2023/01/07 09:37:34;;;;;;;4.32;2.92;;;9.90;99.90;;;;;;4938212;28;20435;-71
2023/01/07 09:40:00;;;;;;;4.63;2.60;;;9.90;99.90;;;;;;4930526;28;20746;-71
2023/01/07 09:42:54;;;;;;;4.90;3.20;;;9.90;99.90;;;;;;4926936;28;20924;-70
2023/01/07 09:45:25;;;;;;;5.18;3.03;;;9.90;99.90;;;;;;4961220;28;20518;-72
2023/01/07 09:47:57;;;;;;;3.78;2.55;;;9.90;99.90;;;;;;4958461;28;20438;-72
2023/01/07 09:50:41;;;;;;;3.00;2.50;;;9.90;99.90;;;;;;4954038;28;20448;-71
2023/01/07 09:53:17;;;;;;;3.70;2.20;;;10.00;99.90;;;;;;4926768;28;20440;-71
2023/01/07 09:55:45;;;;;;;3.55;2.40;;;9.90;99.90;;;;;;4940249;28;20449;-72
2023/01/07 09:58:15;;;;;;;4.90;2.67;;;10.00;99.90;;;;;;4946739;28;20436;-71
2023/01/07 10:00:56;;;;;;;3.70;2.10;;;10.00;99.90;;;;;;4933301;29;20440;-72
2023/01/07 10:03:41;;;;;;;3.33;2.03;;;9.90;99.90;;;;;;4923309;28;20868;-71
2023/01/07 10:06:27;;;;;;;5.88;2.75;;;10.00;99.90;;;;;;4935856;28;20461;-70
2023/01/07 10:09:07;;;;;;;4.45;2.30;;;9.90;99.90;;;;;;4939882;28;20425;-71
2023/01/07 10:11:48;;;;;;;2.30;1.88;;;9.90;99.90;;;;;;4937346;28;20435;-71
2023/01/07 10:14:25;;;;;;;4.82;2.30;;;9.90;99.90;;;;;;4909674;29;21002;-71
2023/01/07 10:17:32;;;;;;;4.75;2.30;;;10.00;99.90;;;;;;4925785;29;20431;-71
2023/01/07 10:20:07;;;;;;;4.22;2.08;;;10.10;99.90;;;;;;4949290;28;20442;-71
2023/01/07 10:22:47;;;;;;;5.25;2.70;;;10.10;99.90;;;;;;4919264;29;20458;-71
2023/01/07 10:25:19;;;;;;;4.13;2.65;;;10.20;99.90;;;;;;4951484;28;21405;-72
2023/01/07 10:27:46;;;;;;;3.22;1.98;;;10.20;99.90;;;;;;4916262;29;20468;-70
2023/01/07 10:30:23;;;;;;;5.15;2.60;;;10.30;99.90;;;;;;4930925;28;20426;-70
2023/01/07 10:33:02;;;;;;;3.67;1.80;;;10.30;99.90;;;;;;4937659;28;20433;-69
2023/01/07 10:35:34;;;;;;;3.70;1.85;;;10.30;99.90;;;;;;4952976;28;20430;-69
2023/01/07 10:38:03;;;;;;;3.05;1.90;;;10.40;99.90;;;;;;4931198;28;20442;-69
2023/01/07 10:40:47;;;;;;;2.58;1.90;;;10.40;99.90;;;;;;4935449;28;20447;-69
2023/01/07 10:43:42;;;;;;;3.10;1.80;;;10.50;99.90;;;;;;4933927;28;20454;-68
2023/01/07 10:46:37;;;;;;;3.13;1.58;;;10.40;99.90;;;;;;4932668;28;20449;-69
2023/01/07 10:49:18;;;;;;;3.08;2.15;;;10.40;99.90;;;;;;4937978;28;20455;-70
2023/01/07 10:51:44;;;;;;;3.87;2.00;;;10.50;99.90;;;;;;4931627;28;21384;-69
2023/01/07 10:54:30;;;;;;;3.47;2.20;;;10.50;99.90;;;;;;4936377;28;20972;-69
2023/01/07 10:57:04;;;;;;;3.85;2.10;;;10.50;99.90;;;;;;4930005;28;20443;-70
2023/01/07 10:59:30;;;;;;;4.00;2.03;;;10.60;99.90;;;;;;4927844;28;20464;-69
2023/01/07 11:01:57;;;;;;;2.93;1.83;;;10.50;99.90;;;;;;4950014;28;20498;-70
2023/01/07 11:04:24;;;;;;;3.30;1.98;;;10.70;99.90;;;;;;4960186;28;21329;-71
2023/01/07 11:06:58;;;;;;;3.58;1.73;;;10.70;99.90;;;;;;4938493;28;20494;-71
2023/01/07 11:09:31;;;;;;;2.08;1.45;;;10.70;99.90;;;;;;4952897;28;20447;-71
2023/01/07 11:12:15;;;;;;;3.78;1.35;;;10.80;99.90;;;;;;4937179;28;20441;-70
2023/01/07 11:14:42;;;;;;;1.90;1.20;;;11.00;99.90;;;;;;4932433;28;20443;-71
2023/01/07 11:17:30;;;;;;;2.72;1.65;;;10.90;99.90;;;;;;4922816;28;21066;-71
2023/01/07 11:19:56;;;;;;;3.40;1.30;;;11.00;99.90;;;;;;4935698;29;20422;-73
2023/01/07 11:22:24;;;;;;;1.77;0.95;;;11.10;99.90;;;;;;4924367;28;20804;-72
2023/01/07 11:24:50;;;;;;;2.00;1.10;;;11.10;99.90;;;;;;4938842;29;20754;-72
2023/01/07 11:27:18;;;;;;;2.60;1.00;;;11.10;99.90;;;;;;4932192;28;20482;-73
2023/01/07 11:29:59;;;;;;;2.75;1.15;;;11.20;99.90;;;;;;4919023;29;20443;-72
2023/01/07 11:32:52;;;;;;;1.88;1.25;;;11.10;99.90;;;;;;4920543;29;20419;-70
2023/01/07 11:35:20;;;;;;;2.50;1.10;;;11.20;99.90;;;;;;4931006;28;20527;-70
2023/01/07 11:37:49;;;;;;;4.65;1.40;;;11.20;99.90;;;;;;4936184;28;20448;-72
2023/01/07 11:40:14;;;;;;;1.73;1.40;;;11.10;99.90;;;;;;4938624;28;20781;-71
2023/01/07 11:42:53;;;;;;;1.80;0.97;;;11.10;99.90;;;;;;4938437;29;20472;-72
2023/01/07 11:45:33;;;;;;;4.30;1.40;;;11.10;99.90;;;;;;4940007;28;20446;-72
2023/01/07 11:48:05;;;;;;;1.70;1.02;;;11.10;99.90;;;;;;4920191;28;20431;-72
2023/01/07 11:50:39;;;;;;;2.78;1.00;;;11.10;99.90;;;;;;4937267;28;20440;-72
2023/01/07 11:53:14;;;;;;;2.17;1.10;;;11.10;99.90;;;;;;4934928;28;20441;-72
2023/01/07 11:55:59;;;;;;;1.45;0.80;;;11.10;99.90;;;;;;4955001;28;21211;-72
2023/01/07 11:58:28;;;;;;;1.20;0.80;;;11.20;99.90;;;;;;4956296;28;20456;-71
2023/01/07 12:01:03;;;;;;;2.70;1.20;;;11.10;99.90;;;;;;4926613;28;20480;-71
2023/01/07 12:03:28;;;;;;;2.27;1.07;;;11.20;99.90;;;;;;4939329;29;20503;-71
2023/01/07 12:06:02;;;;;;;3.13;1.40;;;11.00;99.90;;;;;;4936164;29;20437;-71
2023/01/07 12:08:27;;;;;;;3.17;1.60;;;11.00;99.90;;;;;;4935788;28;20520;-71
2023/01/07 12:11:01;;;;;;;1.80;1.20;;;11.10;99.90;;;;;;4933439;28;20497;-72
2023/01/07 12:13:27;;;;;;;3.13;1.30;;;11.10;99.90;;;;;;4935696;29;20796;-71
2023/01/07 12:16:04;;;;;;;2.08;1.70;;;11.20;99.90;;;;;;4939017;28;20425;-71
2023/01/07 12:18:30;;;;;;;2.50;1.40;;;11.20;99.90;;;;;;4928297;28;20434;-71
2023/01/07 12:20:58;;;;;;;1.97;1.00;;;11.20;99.90;;;;;;4934857;28;20786;-72
2023/01/07 12:24:01;;;;;;;2.10;1.33;;;11.10;99.90;;;;;;4938439;28;20848;-71
2023/01/07 12:27:14;;;;;;;4.30;1.38;;;11.10;99.90;;;;;;4926753;28;20451;-71
2023/01/07 12:29:40;;;;;;;3.75;1.63;;;11.10;99.90;;;;;;4901609;29;20510;-71
2023/01/07 12:32:08;;;;;;;3.50;1.23;;;11.30;99.90;;;;;;4935185;28;21121;-72
2023/01/07 12:35:10;;;;;;;2.95;1.27;;;11.20;99.90;;;;;;4937356;28;20469;-71
2023/01/07 12:38:16;;;;;;;2.47;1.67;;;11.20;99.90;;;;;;4922470;29;20454;-72
2023/01/07 12:40:48;;;;;;;3.57;1.43;;;11.40;99.90;;;;;;4931710;29;20995;-71
2023/01/07 12:43:34;;;;;;;5.28;2.22;;;11.30;99.90;;;;;;4935392;29;20443;-71
2023/01/07 12:46:27;;;;;;;2.03;1.30;;;11.30;99.90;;;;;;4931812;28;20447;-71
2023/01/07 12:49:03;;;;;;;2.15;1.55;;;11.30;99.90;;;;;;4928128;28;20444;-72
2023/01/07 12:51:34;;;;;;;3.10;1.83;;;11.50;99.90;;;;;;4926272;28;20521;-71
2023/01/07 12:54:11;;;;;;;3.00;1.67;;;11.30;99.90;;;;;;4922471;29;20433;-71
2023/01/07 12:56:43;;;;;;;3.80;1.90;;;11.40;99.90;;;;;;4935132;28;20517;-71
2023/01/07 12:59:16;;;;;;;2.40;1.80;;;11.30;99.90;;;;;;4919909;29;20517;-72